Terminal Aerodrome Forecast
Issued by NWS Milwaukee/Sullivan, WI

Home | Current Version | Previous Version | Text Only | Print | Product List | Glossary On
Versions: 1 2 3 4 5 6 7 8 9 10 11 12 13 14 15 16 17 18 19 20 21 22 23 24 25 26 27
000
FTUS43 KMKX 071341 AAA
TAFMSN
TAF AMD
KMSN 071341Z 0714/0812 26010G17KT P6SM SCT020
     FM071800 26011G21KT P6SM SCT020
     FM072200 26010G22KT P6SM BKN025=

USA.gov is the U.S. government's official web portal to all federal, state and local government web resources and services.